Time;durP1;ratioP1;P1;durP2;ratioP2;P2;SDS_P1;SDS_P2;PMS_P1;PMS_P2;Temp;Humidity;BMP_temperature;BMP_pressure;BME280_temperature;BME280_humidity;BME280_pressure;Samples;Min_cycle;Max_cycle;Signal;HPM_P1;HPM_P2
2022/05/07 00:01:20;;;;;;;12.13;10.93;;;;;;;12.04;90.67;98163.69;6247359;28;20230;-68
2022/05/07 01:03:55;;;;;;;11.57;10.33;;;;;;;11.75;91.35;98195.88;5288436;28;20242;-67
2022/05/07 01:07:02;;;;;;;10.50;9.50;;;;;;;11.77;91.30;98193.97;6237442;28;20237;-67
2022/05/07 01:10:05;;;;;;;9.57;8.57;;;;;;;11.79;91.43;98197.31;6237688;28;20241;-67
2022/05/07 01:13:11;;;;;;;9.07;8.27;;;;;;;11.81;91.25;98200.69;6236864;28;20245;-67
2022/05/07 01:16:14;;;;;;;11.80;10.40;;;;;;;11.80;91.17;98190.22;6255968;28;20243;-67
2022/05/07 01:19:18;;;;;;;12.23;9.13;;;;;;;11.75;91.51;98182.66;6229486;28;20237;-68
2022/05/07 01:22:22;;;;;;;9.63;8.73;;;;;;;11.72;91.55;98182.84;6236322;28;20264;-69
2022/05/07 01:25:24;;;;;;;9.97;8.93;;;;;;;11.71;91.61;98186.47;6236697;28;20236;-67
2022/05/07 01:28:26;;;;;;;9.07;8.33;;;;;;;11.73;91.72;98179.25;6254488;28;20295;-69
2022/05/07 01:31:29;;;;;;;9.53;8.53;;;;;;;11.74;91.52;98173.00;6236655;28;20594;-69
2022/05/07 01:34:31;;;;;;;9.57;8.53;;;;;;;11.78;91.71;98171.00;6237802;28;20241;-69
2022/05/07 01:37:33;;;;;;;9.97;7.97;;;;;;;11.75;91.53;98164.16;6237917;28;20800;-69
2022/05/07 01:40:35;;;;;;;10.77;8.90;;;;;;;11.69;91.51;98151.34;6253935;28;20694;-69
2022/05/07 01:43:38;;;;;;;12.03;7.80;;;;;;;11.62;91.71;98138.75;6235988;28;20249;-69
2022/05/07 01:50:06;;;;;;;6.57;5.97;;;;;;;11.51;91.78;98129.00;6228779;28;20262;-69
2022/05/07 01:53:12;;;;;;;6.20;5.70;;;;;;;11.50;91.64;98132.59;6236345;28;20234;-69
2022/05/07 01:56:17;;;;;;;6.63;6.07;;;;;;;11.49;91.74;98133.53;6237708;28;20235;-69
2022/05/07 01:59:21;;;;;;;6.43;5.83;;;;;;;11.52;91.97;98137.75;6236014;28;20297;-69
2022/05/07 02:02:25;;;;;;;6.53;5.80;;;;;;;11.54;91.60;98136.69;6254398;28;20247;-68
2022/05/07 02:05:29;;;;;;;8.60;6.20;;;;;;;11.52;91.66;98133.31;6252697;28;20284;-69
2022/05/07 02:08:31;;;;;;;7.00;6.40;;;;;;;11.51;91.81;98131.63;6253519;28;20238;-68
2022/05/07 02:11:35;;;;;;;7.87;7.17;;;;;;;11.54;91.81;98135.84;6254700;28;20613;-68
2022/05/07 02:14:39;;;;;;;7.60;7.00;;;;;;;11.54;91.92;98130.56;6235869;28;20736;-69
2022/05/07 02:17:42;;;;;;;8.03;7.27;;;;;;;11.54;91.84;98141.13;6227640;28;20321;-67
2022/05/07 02:20:46;;;;;;;6.93;6.33;;;;;;;11.52;91.77;98141.25;6227881;28;20602;-69
2022/05/07 02:23:48;;;;;;;6.43;5.90;;;;;;;11.53;91.79;98142.09;6235764;28;20777;-67
2022/05/07 02:26:50;;;;;;;5.87;5.27;;;;;;;11.52;92.00;98148.34;6235847;28;20241;-67
2022/05/07 02:29:52;;;;;;;6.57;6.03;;;;;;;11.51;91.88;98146.66;6252895;28;20260;-67
2022/05/07 02:32:57;;;;;;;6.63;6.13;;;;;;;11.50;91.90;98156.38;6235658;28;20236;-70
2022/05/07 02:35:59;;;;;;;5.87;5.27;;;;;;;11.49;91.75;98152.03;6236491;28;20237;-69
2022/05/07 02:39:01;;;;;;;6.23;5.73;;;;;;;11.51;92.01;98150.13;6235889;28;20218;-69
2022/05/07 02:45:25;;;;;;;6.13;5.53;;;;;;;11.56;91.94;98150.63;6234847;28;20249;-69
2022/05/07 02:48:35;;;;;;;6.57;6.07;;;;;;;11.57;91.81;98156.78;6226672;28;20333;-69
2022/05/07 02:51:39;;;;;;;6.33;5.83;;;;;;;11.55;91.90;98154.25;6240571;28;20230;-68
2022/05/07 02:54:41;;;;;;;5.93;5.43;;;;;;;11.57;92.02;98159.41;6235575;28;20276;-69
2022/05/07 02:57:43;;;;;;;5.70;5.20;;;;;;;11.54;92.07;98167.56;6234701;28;20226;-69
2022/05/07 03:00:46;;;;;;;5.57;5.07;;;;;;;11.52;91.66;98153.63;6253335;28;20582;-69
2022/05/07 03:03:48;;;;;;;6.90;6.30;;;;;;;11.52;91.96;98150.97;6235799;28;20281;-69
2022/05/07 03:06:50;;;;;;;6.63;6.13;;;;;;;11.47;91.76;98138.13;6226774;28;20671;-69
2022/05/07 03:09:52;;;;;;;8.63;6.67;;;;;;;11.44;91.88;98141.00;6220608;28;20233;-69
2022/05/07 03:12:54;;;;;;;6.83;6.33;;;;;;;11.41;91.95;98146.50;6234644;28;20218;-68
2022/05/07 03:15:57;;;;;;;6.90;6.30;;;;;;;11.41;92.20;98146.50;6234221;28;20661;-68
2022/05/07 03:18:59;;;;;;;6.47;5.97;;;;;;;11.43;91.91;98150.72;6235635;28;20248;-69
2022/05/07 03:22:01;;;;;;;6.57;5.93;;;;;;;11.42;91.98;98158.78;6233921;28;20448;-68
2022/05/07 03:25:06;;;;;;;6.90;6.30;;;;;;;11.43;92.13;98163.09;6234688;28;20233;-68
2022/05/07 03:28:08;;;;;;;6.70;6.10;;;;;;;11.45;92.04;98169.13;6234631;28;20251;-69
2022/05/07 03:31:10;;;;;;;6.53;5.93;;;;;;;11.46;91.75;98165.53;6234446;28;20564;-68
2022/05/07 03:34:14;;;;;;;6.10;5.60;;;;;;;11.47;91.91;98161.91;6225867;28;20253;-69
2022/05/07 03:37:16;;;;;;;6.13;5.60;;;;;;;11.48;92.07;98160.13;6246678;28;20241;-69
2022/05/07 03:40:20;;;;;;;6.37;5.87;;;;;;;11.49;92.13;98159.97;6253052;28;20238;-68
2022/05/07 03:43:22;;;;;;;6.30;5.80;;;;;;;11.50;92.20;98163.47;6250809;28;20235;-68
2022/05/07 03:46:25;;;;;;;6.17;5.43;;;;;;;11.50;92.04;98164.31;6243636;28;20237;-68
2022/05/07 03:49:33;;;;;;;5.70;5.10;;;;;;;11.50;92.10;98172.25;6234155;28;20242;-69
2022/05/07 03:56:02;;;;;;;5.90;5.40;;;;;;;11.48;92.00;98163.56;6233758;28;20255;-68
2022/05/07 03:59:07;;;;;;;5.20;4.80;;;;;;;11.50;91.92;98155.53;6250124;28;20579;-68
2022/05/07 04:02:17;;;;;;;6.47;5.90;;;;;;;11.51;91.93;98166.00;6234174;28;20229;-68
2022/05/07 04:05:26;;;;;;;6.37;5.87;;;;;;;11.55;92.11;98161.31;6236940;28;20741;-69
2022/05/07 04:08:31;;;;;;;6.57;5.97;;;;;;;11.57;91.88;98162.91;6237725;28;20258;-68
2022/05/07 04:11:35;;;;;;;6.03;5.53;;;;;;;11.58;91.89;98169.03;6238255;28;20716;-68
2022/05/07 04:14:39;;;;;;;6.13;5.63;;;;;;;11.58;91.69;98179.59;6237977;28;20241;-68
2022/05/07 04:17:41;;;;;;;5.80;5.40;;;;;;;11.61;91.71;98182.84;6230334;28;20257;-69
2022/05/07 04:20:44;;;;;;;6.07;5.60;;;;;;;11.64;91.67;98179.97;6221631;28;20601;-69
2022/05/07 04:23:50;;;;;;;7.43;6.73;;;;;;;11.66;91.46;98174.56;6247705;28;20320;-69
2022/05/07 04:26:53;;;;;;;6.37;5.83;;;;;;;11.65;91.46;98173.72;6237242;28;20286;-69
2022/05/07 04:29:57;;;;;;;7.10;6.50;;;;;;;11.70;91.43;98171.56;6255899;28;20269;-68
2022/05/07 04:33:00;;;;;;;6.67;6.07;;;;;;;11.77;91.31;98167.53;6237785;28;20701;-68
2022/05/07 04:36:03;;;;;;;6.77;6.20;;;;;;;11.85;91.42;98168.72;6229348;28;20254;-68
2022/05/07 04:39:07;;;;;;;6.50;5.97;;;;;;;11.86;91.15;98165.13;6223031;28;20222;-68
2022/05/07 04:42:24;;;;;;;6.93;6.33;;;;;;;11.91;91.31;98166.44;6229613;28;20252;-68
2022/05/07 04:45:34;;;;;;;6.73;6.23;;;;;;;12.00;91.14;98173.66;6254788;28;20229;-69
2022/05/07 04:48:46;;;;;;;7.30;6.70;;;;;;;12.00;90.75;98168.38;6254723;28;20234;-69
2022/05/07 04:51:50;;;;;;;7.13;6.53;;;;;;;12.04;90.93;98164.53;6237817;28;20238;-68
2022/05/07 04:55:00;;;;;;;7.00;6.30;;;;;;;12.12;90.84;98166.56;6253797;28;20288;-68
2022/05/07 04:58:02;;;;;;;7.77;7.07;;;;;;;12.20;90.48;98172.94;6236738;28;20236;-68
2022/05/07 05:01:08;;;;;;;6.43;5.77;;;;;;;12.27;90.60;98170.66;6237681;28;20344;-68
2022/05/07 05:04:17;;;;;;;7.60;6.90;;;;;;;12.35;90.64;98170.88;6254424;28;20339;-68
2022/05/07 05:07:20;;;;;;;6.73;6.23;;;;;;;12.41;90.57;98174.84;6236862;28;20328;-68
2022/05/07 05:10:24;;;;;;;7.87;7.17;;;;;;;12.43;90.16;98168.47;6254906;28;20242;-68
2022/05/07 05:13:26;;;;;;;6.93;6.33;;;;;;;12.48;90.06;98178.66;6254576;28;20568;-69
2022/05/07 05:16:28;;;;;;;7.13;6.53;;;;;;;12.52;89.84;98177.47;6235944;28;20598;-68
2022/05/07 05:19:38;;;;;;;6.93;6.23;;;;;;;12.57;89.74;98186.75;6236917;28;20300;-68
2022/05/07 05:22:50;;;;;;;6.67;6.17;;;;;;;12.60;89.70;98183.00;6236560;28;20241;-69
2022/05/07 05:25:57;;;;;;;7.47;6.57;;;;;;;12.61;89.62;98178.53;6236366;28;20280;-68
2022/05/07 05:29:12;;;;;;;9.70;8.80;;;;;;;12.62;89.60;98186.34;6237363;28;20227;-68
2022/05/07 05:32:17;;;;;;;14.47;13.03;;;;;;;12.66;89.38;98184.31;6254690;28;20727;-68
2022/05/07 05:35:24;;;;;;;12.10;10.90;;;;;;;12.71;89.31;98182.13;6211622;28;20227;-68
2022/05/07 05:38:28;;;;;;;10.70;9.63;;;;;;;12.81;89.36;98183.91;6211928;28;20266;-68
2022/05/07 05:41:30;;;;;;;12.73;11.43;;;;;;;12.90;nan;98188.44;6222995;28;20378;-68
2022/05/07 05:44:38;;;;;;;12.93;11.73;;;;;;;13.00;88.82;98193.00;6224452;28;20642;-68
2022/05/07 05:47:41;;;;;;;14.70;13.30;;;;;;;13.05;88.79;98201.44;6229142;28;20556;-68
2022/05/07 05:50:44;;;;;;;15.93;14.43;;;;;;;13.09;88.77;98195.72;6235740;28;20238;-72
2022/05/07 05:53:48;;;;;;;16.43;14.83;;;;;;;13.18;88.49;98194.16;6236073;28;20329;-73
2022/05/07 05:56:51;;;;;;;16.60;15.00;;;;;;;13.26;88.07;98205.00;6234915;28;20235;-68
2022/05/07 05:59:53;;;;;;;18.40;16.60;;;;;;;13.33;88.15;98210.63;6236611;28;20592;-70
2022/05/07 06:02:56;;;;;;;22.80;20.33;;;;;;;13.37;87.90;98206.75;6253286;28;20240;-73
2022/05/07 06:06:01;;;;;;;20.03;17.83;;;;;;;13.37;87.48;98206.75;6235903;28;20231;-69
2022/05/07 06:09:03;;;;;;;21.20;18.23;;;;;;;13.38;87.86;98209.25;6253593;28;20258;-69
2022/05/07 06:12:06;;;;;;;22.80;20.00;;;;;;;13.38;87.47;98211.91;6234797;28;20681;-69
2022/05/07 06:15:10;;;;;;;25.97;21.83;;;;;;;13.36;87.05;98208.56;6236931;28;20223;-68
2022/05/07 06:18:13;;;;;;;23.23;20.70;;;;;;;13.28;87.53;98213.63;6225530;28;20218;-68
2022/05/07 06:21:15;;;;;;;20.50;18.40;;;;;;;13.17;86.68;98219.84;6216316;28;20207;-68
2022/05/07 06:27:40;;;;;;;21.30;19.10;;;;;;;13.02;86.83;98222.88;6235195;28;20233;-69
2022/05/07 06:30:53;;;;;;;24.87;22.27;;;;;;;12.98;86.84;98216.16;6227368;28;20761;-69
2022/05/07 06:33:58;;;;;;;22.40;19.97;;;;;;;12.96;86.64;98216.28;6211215;28;20326;-68
2022/05/07 06:37:02;;;;;;;25.20;22.13;;;;;;;13.02;87.08;98217.56;6224504;28;20238;-69
2022/05/07 06:40:07;;;;;;;25.97;22.90;;;;;;;12.96;86.62;98210.97;6229181;28;20695;-68
2022/05/07 06:43:12;;;;;;;22.10;19.80;;;;;;;12.92;86.98;98213.00;6234576;28;20233;-69
2022/05/07 06:46:33;;;;;;;24.17;21.60;;;;;;;12.92;86.72;98209.53;6251659;28;20236;-68
2022/05/07 06:49:42;;;;;;;23.27;20.87;;;;;;;12.91;87.14;98208.69;6225558;28;20711;-69
2022/05/07 06:52:46;;;;;;;23.93;21.37;;;;;;;12.94;87.51;98205.78;6211786;28;20844;-69
2022/05/07 06:55:58;;;;;;;21.63;19.33;;;;;;;13.03;87.03;98211.31;6233138;28;20229;-68
2022/05/07 06:59:00;;;;;;;23.73;21.23;;;;;;;13.12;86.71;98211.38;6252823;28;20238;-69
2022/05/07 07:02:03;;;;;;;21.87;19.50;;;;;;;13.22;87.19;98214.16;6252402;28;20372;-69
2022/05/07 07:05:06;;;;;;;23.00;20.40;;;;;;;13.23;86.77;98200.78;6252695;28;20227;-69
2022/05/07 07:08:08;;;;;;;22.83;20.50;;;;;;;13.22;87.04;98199.09;6252570;28;20304;-68
2022/05/07 07:11:10;;;;;;;22.77;20.37;;;;;;;13.13;86.85;98191.88;6234272;28;20706;-69
2022/05/07 07:14:12;;;;;;;24.87;22.13;;;;;;;13.03;87.23;98195.41;6253204;28;20230;-68
2022/05/07 07:17:16;;;;;;;23.37;20.87;;;;;;;12.96;87.08;98202.19;6253019;28;20232;-68
2022/05/07 07:20:18;;;;;;;19.10;17.10;;;;;;;12.97;87.89;98210.00;6252965;28;20227;-69
2022/05/07 07:23:20;;;;;;;21.33;19.13;;;;;;;13.01;87.08;98205.28;6252826;28;20228;-69
2022/05/07 07:26:21;;;;;;;24.27;21.10;;;;;;;13.06;87.29;98209.25;6233866;28;20685;-69
2022/05/07 07:29:23;;;;;;;21.57;19.17;;;;;;;13.07;86.85;98205.63;6252580;28;20330;-69
2022/05/07 07:32:25;;;;;;;21.23;19.03;;;;;;;13.14;86.99;98214.78;6234088;28;20236;-69
2022/05/07 07:35:28;;;;;;;21.20;18.37;;;;;;;13.27;86.80;98214.63;6225889;28;20658;-69
2022/05/07 07:38:30;;;;;;;21.03;18.70;;;;;;;13.46;85.98;98206.81;6247134;28;20344;-68
2022/05/07 07:41:31;;;;;;;21.87;19.57;;;;;;;13.57;86.10;98208.59;6257318;28;20631;-68
2022/05/07 07:44:34;;;;;;;20.40;17.97;;;;;;;13.77;85.31;98206.91;6256977;28;20227;-68
2022/05/07 07:50:57;;;;;;;16.27;14.67;;;;;;;14.12;84.54;98203.88;6256883;28;20230;-69
2022/05/07 07:53:59;;;;;;;18.37;16.47;;;;;;;14.27;83.94;98200.75;6255921;28;20234;-69
2022/05/07 07:57:02;;;;;;;18.97;16.97;;;;;;;14.32;82.71;98197.66;6256612;28;20253;-68
2022/05/07 08:00:06;;;;;;;18.93;16.50;;;;;;;14.27;82.42;98198.09;6256882;28;20215;-69
2022/05/07 08:03:16;;;;;;;16.97;15.30;;;;;;;14.52;82.39;98190.66;6255630;28;20721;-72
2022/05/07 08:06:18;;;;;;;17.23;15.63;;;;;;;14.69;80.86;98195.28;6229874;28;20215;-70
2022/05/07 08:12:40;;;;;;;17.83;16.00;;;;;;;14.97;79.07;98204.31;6255940;28;20226;-69
2022/05/07 08:15:50;;;;;;;18.37;16.43;;;;;;;14.92;78.26;98201.22;6156286;28;10001050;-70
2022/05/07 08:18:52;;;;;;;16.77;15.17;;;;;;;15.01;78.14;98209.22;5680703;28;10000448;-69
2022/05/07 08:21:54;;;;;;;17.27;15.53;;;;;;;15.09;78.00;98205.84;6233581;28;20237;-68
2022/05/07 08:24:56;;;;;;;17.13;15.43;;;;;;;15.15;76.69;98213.31;6254786;28;20230;-70
2022/05/07 08:27:58;;;;;;;17.33;14.33;;;;;;;15.34;77.08;98221.28;6256255;28;20246;-66
2022/05/07 08:31:01;;;;;;;16.97;13.23;;;;;;;15.54;75.96;98219.50;6253081;28;20250;-69
2022/05/07 08:34:03;;;;;;;14.70;13.20;;;;;;;15.61;75.41;98225.91;6248286;28;20274;-70
2022/05/07 08:37:05;;;;;;;13.70;12.37;;;;;;;15.71;74.41;98226.75;6237654;28;20230;-71
2022/05/07 08:40:08;;;;;;;14.13;12.83;;;;;;;15.75;75.13;98233.47;6254130;28;20233;-67
2022/05/07 08:43:10;;;;;;;13.83;12.47;;;;;;;15.87;75.23;98231.50;6255263;28;20250;-70
2022/05/07 08:46:16;;;;;;;12.80;11.50;;;;;;;16.09;74.01;98232.97;6255126;28;20238;-69
2022/05/07 08:49:18;;;;;;;12.67;11.30;;;;;;;16.40;73.92;98234.44;6255363;28;20338;-69
2022/05/07 08:52:22;;;;;;;12.00;10.90;;;;;;;16.46;72.87;98227.69;6256928;28;20316;-69
2022/05/07 08:55:24;;;;;;;12.10;10.80;;;;;;;16.62;73.66;98227.91;5358053;28;10000584;-69
2022/05/07 08:58:26;;;;;;;10.83;9.73;;;;;;;16.76;72.86;98232.78;6255736;28;20702;-68
2022/05/07 09:01:28;;;;;;;11.73;10.47;;;;;;;16.85;72.61;98226.53;6254940;28;20330;-68
2022/05/07 09:04:30;;;;;;;10.83;9.80;;;;;;;16.94;73.38;98228.31;6255875;28;20226;-67
2022/05/07 09:07:33;;;;;;;10.70;9.43;;;;;;;16.90;72.94;98229.59;6247467;28;20717;-67
2022/05/07 09:10:36;;;;;;;13.13;9.33;;;;;;;16.80;72.37;98230.63;6236128;28;20757;-68
2022/05/07 09:13:38;;;;;;;10.77;9.67;;;;;;;16.71;72.25;98234.19;6236839;28;20235;-68
2022/05/07 09:16:43;;;;;;;10.50;9.07;;;;;;;16.50;71.83;98232.56;6226956;28;20566;-69
2022/05/07 09:19:45;;;;;;;11.90;10.43;;;;;;;16.67;72.71;98233.63;6236775;28;20259;-67
2022/05/07 09:22:55;;;;;;;9.63;8.73;;;;;;;16.65;72.38;98230.31;6231832;28;20238;-68
2022/05/07 09:25:57;;;;;;;11.20;10.10;;;;;;;16.57;71.95;98238.13;6251989;28;20800;-68
2022/05/07 09:29:00;;;;;;;9.87;8.97;;;;;;;16.56;73.14;98242.66;6233830;28;20223;-68
2022/05/07 09:32:16;;;;;;;9.93;9.03;;;;;;;16.71;74.18;98245.69;6245545;28;20238;-68
2022/05/07 09:38:40;;;;;;;10.13;9.23;;;;;;;16.58;73.00;98243.31;6252083;28;20253;-69
2022/05/07 09:41:43;;;;;;;9.87;9.00;;;;;;;16.72;74.03;98238.53;6252366;28;20223;-68
2022/05/07 09:44:46;;;;;;;10.20;9.30;;;;;;;16.80;74.43;98238.63;6252856;28;20226;-69
2022/05/07 09:47:49;;;;;;;9.50;8.67;;;;;;;16.73;74.60;98243.72;6251779;28;20231;-67
2022/05/07 09:50:51;;;;;;;9.80;8.90;;;;;;;16.68;75.14;98237.97;6251131;28;20702;-66
2022/05/07 09:57:32;;;;;;;9.37;7.87;;;;;;;16.96;74.77;98238.84;6251530;28;20228;-69
2022/05/07 10:00:39;;;;;;;9.77;8.87;;;;;;;16.86;75.18;98236.22;6210803;28;20603;-69
2022/05/07 10:03:47;;;;;;;9.93;9.03;;;;;;;16.73;76.08;98235.72;6252608;28;20310;-69
2022/05/07 10:07:07;;;;;;;9.37;8.47;;;;;;;16.63;76.48;98237.59;6252358;28;20768;-67
2022/05/07 10:10:16;;;;;;;8.37;7.67;;;;;;;16.52;77.02;98235.09;6252742;28;20288;-66
2022/05/07 10:13:21;;;;;;;10.40;9.43;;;;;;;16.46;77.33;98233.03;6253356;28;20230;-69
2022/05/07 10:16:23;;;;;;;9.47;8.67;;;;;;;16.46;77.00;98233.88;6250983;28;20231;-68
2022/05/07 10:19:42;;;;;;;9.77;8.77;;;;;;;16.56;77.16;98237.31;6253349;28;20242;-68
2022/05/07 10:22:54;;;;;;;9.40;8.60;;;;;;;16.91;76.26;98230.44;6250445;28;20448;-68
2022/05/07 10:25:58;;;;;;;8.83;7.93;;;;;;;16.81;76.30;98230.47;6252508;28;20258;-68
2022/05/07 10:29:01;;;;;;;9.40;8.27;;;;;;;16.83;76.30;98233.84;6252928;28;20235;-68
2022/05/07 10:32:04;;;;;;;9.77;8.77;;;;;;;16.82;76.30;98234.00;6251815;28;20231;-69
2022/05/07 10:35:07;;;;;;;10.40;9.50;;;;;;;16.73;76.51;98235.72;6227108;28;20289;-68
2022/05/07 10:38:14;;;;;;;10.03;9.13;;;;;;;16.75;76.96;98230.25;6245095;28;20226;-69
2022/05/07 10:41:16;;;;;;;8.80;8.00;;;;;;;16.79;76.67;98226.28;6253178;28;20369;-69
2022/05/07 10:44:34;;;;;;;9.83;8.83;;;;;;;16.89;76.10;98230.56;6233897;28;20740;-68
2022/05/07 10:47:36;;;;;;;8.77;8.07;;;;;;;16.94;75.93;98220.31;6231097;28;20606;-69
2022/05/07 10:50:38;;;;;;;9.50;8.60;;;;;;;17.02;75.24;98219.56;6234903;28;20919;-68
2022/05/07 10:53:40;;;;;;;8.07;7.37;;;;;;;17.14;74.64;98212.19;6250675;28;20279;-69
2022/05/07 10:56:48;;;;;;;9.13;8.23;;;;;;;17.24;74.32;98210.28;6251780;28;20282;-68
2022/05/07 10:59:49;;;;;;;9.60;8.70;;;;;;;17.31;73.54;98198.00;6250913;28;20266;-68
2022/05/07 11:03:00;;;;;;;9.30;8.40;;;;;;;17.44;73.63;98197.63;6252103;28;20238;-68
2022/05/07 11:06:02;;;;;;;8.60;7.80;;;;;;;17.45;73.84;98192.16;6251839;28;20238;-70
2022/05/07 11:09:04;;;;;;;10.23;8.17;;;;;;;17.59;73.68;98196.91;6251703;28;20214;-69
2022/05/07 11:12:18;;;;;;;8.87;8.07;;;;;;;17.70;73.51;98201.22;6252081;28;20235;-70
2022/05/07 11:15:25;;;;;;;11.30;9.03;;;;;;;17.75;72.64;98198.09;6256675;28;20258;-61
2022/05/07 11:18:33;;;;;;;11.57;9.90;;;;;;;17.70;71.44;98188.69;6256281;28;20317;-66
2022/05/07 11:21:37;;;;;;;11.90;10.80;;;;;;;17.69;70.42;98189.69;6258440;28;20718;-66
2022/05/07 11:24:39;;;;;;;12.77;10.03;;;;;;;17.63;71.09;98192.16;6256856;28;20223;-66
2022/05/07 11:27:41;;;;;;;12.57;11.37;;;;;;;17.69;70.53;98188.84;6257107;28;20235;-71
2022/05/07 11:30:51;;;;;;;11.27;10.10;;;;;;;17.81;71.60;98187.59;6256821;28;20238;-67
2022/05/07 11:34:07;;;;;;;11.47;10.03;;;;;;;18.06;70.68;98186.78;6231113;28;20243;-63
2022/05/07 11:37:09;;;;;;;11.90;10.80;;;;;;;18.28;70.73;98182.72;6251817;28;20701;-68
2022/05/07 11:40:25;;;;;;;11.73;10.53;;;;;;;18.23;70.08;98184.19;6255687;28;20234;-67
2022/05/07 11:46:55;;;;;;;12.07;10.93;;;;;;;18.26;69.00;98179.38;6257290;28;20227;-68
2022/05/07 11:50:06;;;;;;;14.63;12.10;;;;;;;17.95;68.34;98175.53;6256170;28;20444;-65
2022/05/07 11:53:20;;;;;;;10.43;9.43;;;;;;;17.97;70.10;98176.19;6242021;28;20234;-63
2022/05/07 11:56:22;;;;;;;11.93;10.73;;;;;;;17.82;67.60;98178.59;6255309;28;20714;-64
2022/05/07 11:59:24;;;;;;;10.93;9.93;;;;;;;17.72;67.50;98182.38;6255388;28;20223;-64
2022/05/07 12:02:26;;;;;;;9.97;9.07;;;;;;;17.74;68.18;98170.53;6255946;28;20241;-64
2022/05/07 12:05:40;;;;;;;10.50;9.53;;;;;;;18.01;69.37;98173.06;6256032;28;20269;-65
2022/05/07 12:08:42;;;;;;;10.83;9.77;;;;;;;18.28;68.49;98166.69;6255329;28;20233;-64
2022/05/07 12:11:44;;;;;;;13.07;10.80;;;;;;;18.06;68.12;98153.91;6256996;28;20231;-64
2022/05/07 12:14:46;;;;;;;11.53;10.13;;;;;;;17.99;68.72;98148.34;6255776;28;20235;-64
2022/05/07 12:17:53;;;;;;;10.37;9.37;;;;;;;17.98;68.59;98140.47;6246930;28;20238;-64
2022/05/07 12:20:55;;;;;;;10.43;9.43;;;;;;;18.04;67.42;98138.03;6255565;28;20230;-65
2022/05/07 12:30:38;;;;;;;8.60;7.73;;;;;;;18.20;64.94;98126.56;6255867;28;20231;-64
2022/05/07 12:33:40;;;;;;;10.10;7.60;;;;;;;18.61;65.58;98140.13;6254306;28;20227;-63
2022/05/07 12:36:42;;;;;;;8.73;7.30;;;;;;;18.88;67.08;98144.38;6255175;28;20250;-64
2022/05/07 12:39:45;;;;;;;10.27;7.43;;;;;;;18.98;65.28;98137.88;6254674;28;20227;-64
2022/05/07 12:42:47;;;;;;;7.80;6.80;;;;;;;19.02;65.40;98133.88;6254797;28;20292;-64
2022/05/07 12:45:49;;;;;;;7.13;6.43;;;;;;;19.04;66.53;98142.59;6254055;28;20380;-64
2022/05/07 12:48:52;;;;;;;7.83;6.70;;;;;;;18.91;67.20;98144.03;6230080;28;20224;-64
2022/05/07 12:51:54;;;;;;;11.67;8.40;;;;;;;18.63;63.36;98141.66;6241245;28;20231;-64
2022/05/07 12:54:56;;;;;;;8.90;8.10;;;;;;;18.53;62.93;98134.72;6257889;28;20227;-64
2022/05/07 12:57:59;;;;;;;6.60;6.10;;;;;;;18.90;64.22;98129.84;6256660;28;20672;-64
2022/05/07 13:01:02;;;;;;;8.33;6.63;;;;;;;19.33;64.61;98133.22;6242267;28;20724;-64
2022/05/07 14:03:55;;;;;;;8.67;6.40;;;;;;;19.61;62.47;98117.69;5257025;28;20231;-64
2022/05/07 14:06:59;;;;;;;7.17;6.43;;;;;;;19.60;63.30;98107.97;6252387;28;20607;-64
2022/05/07 14:10:02;;;;;;;8.97;7.73;;;;;;;19.69;61.70;98109.63;6252706;28;20404;-64
2022/05/07 14:13:05;;;;;;;7.80;6.60;;;;;;;19.72;62.11;98107.47;6253095;28;20397;-64
2022/05/07 14:16:08;;;;;;;8.27;6.37;;;;;;;19.86;61.88;98112.09;6251855;28;20239;-64
2022/05/07 14:19:10;;;;;;;9.07;7.90;;;;;;;19.89;60.57;98105.56;6249210;28;20289;-64
2022/05/07 14:22:12;;;;;;;11.20;8.27;;;;;;;19.70;60.25;98097.91;6251757;28;20321;-64
2022/05/07 14:25:14;;;;;;;8.10;7.40;;;;;;;19.61;60.67;98097.09;6253521;28;20235;-65
2022/05/07 14:28:16;;;;;;;8.73;6.60;;;;;;;19.58;60.70;98099.28;6252943;28;20227;-64
2022/05/07 14:31:20;;;;;;;8.43;7.30;;;;;;;19.44;61.51;98098.94;6252715;28;20246;-65
2022/05/07 14:34:22;;;;;;;8.27;7.57;;;;;;;19.40;61.33;98105.63;6249999;28;20231;-64
2022/05/07 14:37:25;;;;;;;11.20;9.00;;;;;;;19.24;60.86;98102.97;6244705;28;20317;-64
2022/05/07 14:40:31;;;;;;;9.37;8.47;;;;;;;18.95;61.92;98087.41;6252092;28;20241;-64
2022/05/07 14:43:33;;;;;;;8.77;7.90;;;;;;;18.88;62.27;98090.88;6251664;28;20231;-66
2022/05/07 14:46:36;;;;;;;8.80;7.97;;;;;;;18.91;62.83;98093.22;6251276;28;20687;-64
2022/05/07 14:49:38;;;;;;;6.33;5.70;;;;;;;18.95;64.56;98084.72;6249456;28;20292;-64
2022/05/07 14:52:41;;;;;;;8.27;7.57;;;;;;;18.93;63.94;98081.38;6252133;28;20242;-64
2022/05/07 14:55:43;;;;;;;10.00;9.10;;;;;;;18.83;63.23;98082.53;6252131;28;20669;-64
2022/05/07 14:58:46;;;;;;;6.87;6.30;;;;;;;18.94;64.20;98076.84;6251399;28;20238;-63
2022/05/07 15:02:07;;;;;;;8.70;7.90;;;;;;;19.10;62.41;98077.69;6253175;28;20612;-64
2022/05/07 15:05:10;;;;;;;8.73;7.30;;;;;;;19.50;62.39;98076.03;6227895;28;20228;-63
2022/05/07 15:11:32;;;;;;;8.87;8.07;;;;;;;18.57;64.22;98069.22;6228696;28;20232;-63
2022/05/07 15:14:36;;;;;;;12.50;9.63;;;;;;;18.12;64.93;98073.13;6227648;28;20233;-64
2022/05/07 15:17:39;;;;;;;8.30;7.50;;;;;;;17.76;66.20;98071.63;6228637;28;20236;-63
2022/05/07 15:20:41;;;;;;;11.73;8.87;;;;;;;17.76;66.83;98074.28;6228098;28;20236;-64
2022/05/07 15:23:43;;;;;;;7.80;7.00;;;;;;;17.73;67.97;98077.25;6228695;28;20239;-64
2022/05/07 15:26:45;;;;;;;9.90;8.27;;;;;;;17.72;68.03;98083.59;6227568;28;20231;-64
2022/05/07 15:29:47;;;;;;;10.00;7.50;;;;;;;17.69;68.65;98090.06;6227506;28;20246;-64
2022/05/07 15:39:31;;;;;;;8.60;7.80;;;;;;;17.66;69.76;98083.25;6228065;28;20570;-63
2022/05/07 15:42:34;;;;;;;8.07;7.37;;;;;;;17.67;70.27;98078.72;6209197;28;20241;-63
2022/05/07 15:45:37;;;;;;;7.90;7.20;;;;;;;17.68;70.29;98080.38;6227572;28;20227;-64
2022/05/07 15:48:39;;;;;;;7.77;7.00;;;;;;;17.67;70.39;98074.22;6226295;28;20230;-63
2022/05/07 15:51:41;;;;;;;7.30;6.70;;;;;;;17.56;71.00;98076.31;6227521;28;20261;-64
2022/05/07 15:54:43;;;;;;;9.23;6.80;;;;;;;17.45;71.39;98074.72;6226610;28;20223;-63
2022/05/07 15:57:45;;;;;;;7.87;7.17;;;;;;;17.38;71.56;98078.16;6226524;28;20227;-64
2022/05/07 16:00:47;;;;;;;8.00;7.30;;;;;;;17.34;71.76;98077.66;6231774;28;20231;-62
2022/05/07 16:03:49;;;;;;;8.90;8.00;;;;;;;17.33;71.90;98075.97;6233799;28;20720;-64
2022/05/07 16:06:51;;;;;;;10.13;8.90;;;;;;;17.22;72.05;98078.88;6247384;28;20648;-64
2022/05/07 16:10:14;;;;;;;9.67;8.67;;;;;;;17.01;72.12;98084.53;6230638;28;20742;-62
2022/05/07 16:13:18;;;;;;;7.57;6.97;;;;;;;16.96;72.30;98079.69;6255332;28;20238;-64
2022/05/07 16:16:22;;;;;;;9.83;7.60;;;;;;;16.92;72.73;98093.47;6255834;28;20234;-63
2022/05/07 16:19:26;;;;;;;8.67;7.40;;;;;;;16.84;73.09;98090.72;6256049;28;20243;-63
2022/05/07 16:25:52;;;;;;;7.77;7.07;;;;;;;16.63;73.83;98085.69;6246659;28;20246;-63
2022/05/07 16:28:53;;;;;;;7.70;7.00;;;;;;;16.63;73.80;98084.84;6255453;28;20242;-63
2022/05/07 16:31:55;;;;;;;8.50;7.70;;;;;;;16.51;74.02;98085.03;6254704;28;20758;-62
2022/05/07 16:34:58;;;;;;;7.30;6.60;;;;;;;16.43;74.44;98089.44;6255511;28;20302;-68
2022/05/07 16:38:00;;;;;;;8.77;7.87;;;;;;;16.37;74.68;98088.19;6253420;28;20337;-68
2022/05/07 16:41:02;;;;;;;8.77;7.77;;;;;;;16.31;74.81;98085.31;6230149;28;20258;-68
2022/05/07 16:44:04;;;;;;;8.77;7.57;;;;;;;16.16;75.29;98096.47;6252606;28;20229;-68
2022/05/07 16:47:07;;;;;;;7.67;6.97;;;;;;;16.12;75.73;98084.41;6254354;28;20257;-68
2022/05/07 16:50:09;;;;;;;9.07;7.70;;;;;;;15.98;76.07;98087.56;6255736;28;20246;-68
2022/05/07 16:53:12;;;;;;;11.33;9.80;;;;;;;15.52;78.07;98075.09;6254630;28;20732;-68
2022/05/07 16:56:14;;;;;;;10.50;9.40;;;;;;;15.15;79.80;98067.06;6254994;28;20708;-68
2022/05/07 16:59:17;;;;;;;12.30;11.20;;;;;;;14.91;80.28;98070.16;6253139;28;20574;-68
2022/05/07 17:02:19;;;;;;;12.43;10.93;;;;;;;14.86;80.79;98066.25;6236448;28;20767;-68
2022/05/07 17:05:21;;;;;;;12.30;11.03;;;;;;;14.77;80.82;98066.09;6254826;28;20321;-68
2022/05/07 17:08:26;;;;;;;11.07;10.07;;;;;;;14.79;80.50;98073.94;6254307;28;20306;-68